sensor_id;sensor_type;location;lat;lon;timestamp;P1;durP1;ratioP1;P2;durP2;ratioP2
55112;SDS011;41006;50.920;3.456;2023-02-28T00:00:09;14.07;;;8.13;;
55112;SDS011;41006;50.920;3.456;2023-02-28T00:00:43;10.50;;;7.05;;
55112;SDS011;41006;50.920;3.456;2023-02-28T00:01:15;11.95;;;7.85;;
55112;SDS011;41006;50.920;3.456;2023-02-28T00:01:48;13.60;;;8.85;;
55112;SDS011;41006;50.920;3.456;2023-02-28T00:02:21;15.77;;;10.32;;
55112;SDS011;41006;50.920;3.456;2023-02-28T00:02:51;20.05;;;11.40;;
55112;SDS011;41006;50.920;3.456;2023-02-28T00:03:21;22.75;;;11.40;;
55112;SDS011;41006;50.920;3.456;2023-02-28T00:03:52;20.52;;;10.00;;
55112;SDS011;41006;50.920;3.456;2023-02-28T00:04:22;12.43;;;9.50;;
55112;SDS011;41006;50.920;3.456;2023-02-28T00:04:52;15.98;;;10.35;;
55112;SDS011;41006;50.920;3.456;2023-02-28T00:05:31;15.02;;;10.55;;
55112;SDS011;41006;50.920;3.456;2023-02-28T00:06:04;14.25;;;10.27;;
55112;SDS011;41006;50.920;3.456;2023-02-28T00:06:35;18.67;;;10.02;;
55112;SDS011;41006;50.920;3.456;2023-02-28T00:07:07;18.38;;;10.20;;
55112;SDS011;41006;50.920;3.456;2023-02-28T00:07:41;16.45;;;10.68;;
55112;SDS011;41006;50.920;3.456;2023-02-28T00:08:12;15.27;;;11.23;;
55112;SDS011;41006;50.920;3.456;2023-02-28T00:08:43;19.13;;;11.85;;
55112;SDS011;41006;50.920;3.456;2023-02-28T00:09:13;22.83;;;14.68;;
55112;SDS011;41006;50.920;3.456;2023-02-28T00:09:45;22.92;;;14.98;;
55112;SDS011;41006;50.920;3.456;2023-02-28T00:10:17;22.95;;;14.25;;
55112;SDS011;41006;50.920;3.456;2023-02-28T00:10:55;19.33;;;12.00;;
55112;SDS011;41006;50.920;3.456;2023-02-28T00:11:29;24.77;;;15.13;;
55112;SDS011;41006;50.920;3.456;2023-02-28T00:12:02;23.08;;;14.50;;
55112;SDS011;41006;50.920;3.456;2023-02-28T00:12:40;19.17;;;12.95;;
55112;SDS011;41006;50.920;3.456;2023-02-28T00:13:10;20.50;;;13.07;;
55112;SDS011;41006;50.920;3.456;2023-02-28T00:13:43;20.52;;;12.93;;
55112;SDS011;41006;50.920;3.456;2023-02-28T00:14:18;20.40;;;13.10;;
55112;SDS011;41006;50.920;3.456;2023-02-28T00:14:49;18.95;;;12.07;;
55112;SDS011;41006;50.920;3.456;2023-02-28T00:15:21;17.70;;;11.00;;
55112;SDS011;41006;50.920;3.456;2023-02-28T00:16:02;16.88;;;10.77;;
55112;SDS011;41006;50.920;3.456;2023-02-28T00:16:33;16.63;;;10.25;;
55112;SDS011;41006;50.920;3.456;2023-02-28T00:17:05;16.27;;;9.85;;
55112;SDS011;41006;50.920;3.456;2023-02-28T00:17:36;14.18;;;9.68;;
55112;SDS011;41006;50.920;3.456;2023-02-28T00:18:06;15.45;;;10.10;;
55112;SDS011;41006;50.920;3.456;2023-02-28T00:18:39;15.60;;;10.23;;
55112;SDS011;41006;50.920;3.456;2023-02-28T00:19:09;15.68;;;10.15;;
55112;SDS011;41006;50.920;3.456;2023-02-28T00:19:41;14.57;;;8.93;;
55112;SDS011;41006;50.920;3.456;2023-02-28T00:20:12;14.57;;;9.43;;
55112;SDS011;41006;50.920;3.456;2023-02-28T00:20:45;12.30;;;8.82;;
55112;SDS011;41006;50.920;3.456;2023-02-28T00:21:16;14.98;;;9.32;;
55112;SDS011;41006;50.920;3.456;2023-02-28T00:21:48;14.00;;;10.07;;
55112;SDS011;41006;50.920;3.456;2023-02-28T00:22:21;20.30;;;9.35;;
55112;SDS011;41006;50.920;3.456;2023-02-28T00:22:52;14.25;;;9.25;;
55112;SDS011;41006;50.920;3.456;2023-02-28T00:23:25;14.90;;;10.13;;
55112;SDS011;41006;50.920;3.456;2023-02-28T00:23:58;14.27;;;9.48;;
55112;SDS011;41006;50.920;3.456;2023-02-28T00:24:28;13.45;;;9.25;;
55112;SDS011;41006;50.920;3.456;2023-02-28T00:25:01;14.40;;;9.70;;
55112;SDS011;41006;50.920;3.456;2023-02-28T00:25:31;13.68;;;10.35;;
55112;SDS011;41006;50.920;3.456;2023-02-28T00:26:01;15.77;;;10.35;;
55112;SDS011;41006;50.920;3.456;2023-02-28T00:26:32;14.63;;;9.55;;
55112;SDS011;41006;50.920;3.456;2023-02-28T00:27:02;18.65;;;10.02;;
55112;SDS011;41006;50.920;3.456;2023-02-28T00:27:35;14.48;;;9.52;;
55112;SDS011;41006;50.920;3.456;2023-02-28T00:28:06;16.40;;;9.77;;
55112;SDS011;41006;50.920;3.456;2023-02-28T00:28:36;15.77;;;10.15;;
55112;SDS011;41006;50.920;3.456;2023-02-28T00:29:06;14.15;;;9.20;;
55112;SDS011;41006;50.920;3.456;2023-02-28T00:29:39;17.10;;;11.07;;
55112;SDS011;41006;50.920;3.456;2023-02-28T00:30:15;16.10;;;10.48;;
55112;SDS011;41006;50.920;3.456;2023-02-28T00:30:45;14.40;;;10.80;;
55112;SDS011;41006;50.920;3.456;2023-02-28T00:31:16;15.07;;;9.95;;
55112;SDS011;41006;50.920;3.456;2023-02-28T00:31:49;18.33;;;11.52;;
55112;SDS011;41006;50.920;3.456;2023-02-28T00:32:21;18.00;;;12.20;;
55112;SDS011;41006;50.920;3.456;2023-02-28T00:32:54;16.27;;;12.77;;
55112;SDS011;41006;50.920;3.456;2023-02-28T00:33:24;17.67;;;12.50;;
55112;SDS011;41006;50.920;3.456;2023-02-28T00:33:55;20.88;;;12.43;;
55112;SDS011;41006;50.920;3.456;2023-02-28T00:34:25;20.60;;;12.75;;
55112;SDS011;41006;50.920;3.456;2023-02-28T00:34:59;19.58;;;12.00;;
55112;SDS011;41006;50.920;3.456;2023-02-28T00:35:32;18.38;;;11.77;;
55112;SDS011;41006;50.920;3.456;2023-02-28T00:36:06;17.52;;;11.77;;
55112;SDS011;41006;50.920;3.456;2023-02-28T00:36:36;17.75;;;11.23;;
55112;SDS011;41006;50.920;3.456;2023-02-28T00:37:08;20.10;;;12.10;;
55112;SDS011;41006;50.920;3.456;2023-02-28T00:37:38;16.55;;;11.50;;
55112;SDS011;41006;50.920;3.456;2023-02-28T00:38:09;14.25;;;10.77;;
55112;SDS011;41006;50.920;3.456;2023-02-28T00:38:39;18.13;;;11.10;;
55112;SDS011;41006;50.920;3.456;2023-02-28T00:39:10;13.90;;;10.80;;
55112;SDS011;41006;50.920;3.456;2023-02-28T00:39:40;14.02;;;10.43;;
55112;SDS011;41006;50.920;3.456;2023-02-28T00:40:10;15.93;;;10.43;;
55112;SDS011;41006;50.920;3.456;2023-02-28T00:40:42;12.50;;;8.63;;
55112;SDS011;41006;50.920;3.456;2023-02-28T00:41:15;13.35;;;9.73;;
55112;SDS011;41006;50.920;3.456;2023-02-28T00:41:45;10.95;;;9.07;;
55112;SDS011;41006;50.920;3.456;2023-02-28T00:42:15;14.13;;;9.55;;
55112;SDS011;41006;50.920;3.456;2023-02-28T00:42:47;13.85;;;9.90;;
55112;SDS011;41006;50.920;3.456;2023-02-28T00:43:21;14.95;;;11.10;;
55112;SDS011;41006;50.920;3.456;2023-02-28T00:43:51;18.33;;;13.27;;
55112;SDS011;41006;50.920;3.456;2023-02-28T00:44:21;18.60;;;12.70;;
55112;SDS011;41006;50.920;3.456;2023-02-28T00:44:51;29.65;;;17.55;;
55112;SDS011;41006;50.920;3.456;2023-02-28T00:45:24;31.15;;;18.42;;
55112;SDS011;41006;50.920;3.456;2023-02-28T00:45:54;31.92;;;19.75;;
55112;SDS011;41006;50.920;3.456;2023-02-28T00:46:25;27.85;;;16.83;;
55112;SDS011;41006;50.920;3.456;2023-02-28T00:46:55;34.83;;;18.73;;
55112;SDS011;41006;50.920;3.456;2023-02-28T00:47:26;31.70;;;19.48;;
55112;SDS011;41006;50.920;3.456;2023-02-28T00:47:56;33.47;;;20.30;;
55112;SDS011;41006;50.920;3.456;2023-02-28T00:48:29;36.22;;;20.63;;
55112;SDS011;41006;50.920;3.456;2023-02-28T00:49:02;29.40;;;18.23;;
55112;SDS011;41006;50.920;3.456;2023-02-28T00:49:36;11.82;;;8.93;;
55112;SDS011;41006;50.920;3.456;2023-02-28T00:50:09;12.32;;;9.18;;
55112;SDS011;41006;50.920;3.456;2023-02-28T00:50:39;16.15;;;10.43;;
55112;SDS011;41006;50.920;3.456;2023-02-28T00:51:10;18.02;;;11.57;;
55112;SDS011;41006;50.920;3.456;2023-02-28T00:51:40;15.93;;;10.75;;
55112;SDS011;41006;50.920;3.456;2023-02-28T00:52:10;13.98;;;9.63;;
55112;SDS011;41006;50.920;3.456;2023-02-28T00:52:40;11.57;;;9.18;;
55112;SDS011;41006;50.920;3.456;2023-02-28T00:53:11;15.02;;;9.98;;
55112;SDS011;41006;50.920;3.456;2023-02-28T00:53:41;13.25;;;8.73;;
55112;SDS011;41006;50.920;3.456;2023-02-28T00:54:11;12.25;;;8.25;;
55112;SDS011;41006;50.920;3.456;2023-02-28T00:54:42;13.90;;;8.52;;
55112;SDS011;41006;50.920;3.456;2023-02-28T00:55:12;10.20;;;7.80;;
55112;SDS011;41006;50.920;3.456;2023-02-28T00:55:42;9.40;;;8.50;;
55112;SDS011;41006;50.920;3.456;2023-02-28T00:56:15;12.98;;;8.93;;
55112;SDS011;41006;50.920;3.456;2023-02-28T00:56:45;15.60;;;9.23;;
55112;SDS011;41006;50.920;3.456;2023-02-28T00:57:15;16.67;;;8.93;;
55112;SDS011;41006;50.920;3.456;2023-02-28T00:57:46;19.60;;;8.95;;
55112;SDS011;41006;50.920;3.456;2023-02-28T00:58:16;11.77;;;8.45;;
55112;SDS011;41006;50.920;3.456;2023-02-28T00:58:48;10.50;;;7.93;;
55112;SDS011;41006;50.920;3.456;2023-02-28T00:59:21;12.40;;;9.23;;
55112;SDS011;41006;50.920;3.456;2023-02-28T00:59:51;13.32;;;8.88;;
55112;SDS011;41006;50.920;3.456;2023-02-28T01:00:24;8.80;;;7.90;;
55112;SDS011;41006;50.920;3.456;2023-02-28T01:00:54;11.48;;;9.23;;
55112;SDS011;41006;50.920;3.456;2023-02-28T01:01:25;13.15;;;9.48;;
55112;SDS011;41006;50.920;3.456;2023-02-28T01:01:55;10.57;;;9.45;;
55112;SDS011;41006;50.920;3.456;2023-02-28T01:02:25;9.70;;;8.77;;
55112;SDS011;41006;50.920;3.456;2023-02-28T01:02:55;10.95;;;8.77;;
55112;SDS011;41006;50.920;3.456;2023-02-28T01:03:29;13.00;;;9.07;;
55112;SDS011;41006;50.920;3.456;2023-02-28T01:03:59;11.48;;;9.48;;
55112;SDS011;41006;50.920;3.456;2023-02-28T01:04:32;15.07;;;9.20;;
55112;SDS011;41006;50.920;3.456;2023-02-28T01:05:04;10.75;;;8.30;;
55112;SDS011;41006;50.920;3.456;2023-02-28T01:05:37;10.38;;;8.90;;
55112;SDS011;41006;50.920;3.456;2023-02-28T01:06:07;15.52;;;8.70;;
55112;SDS011;41006;50.920;3.456;2023-02-28T01:06:37;11.23;;;8.63;;
55112;SDS011;41006;50.920;3.456;2023-02-28T01:07:10;15.30;;;9.00;;
55112;SDS011;41006;50.920;3.456;2023-02-28T01:07:43;14.40;;;9.75;;
55112;SDS011;41006;50.920;3.456;2023-02-28T01:08:14;10.30;;;8.90;;
55112;SDS011;41006;50.920;3.456;2023-02-28T01:08:44;12.27;;;8.95;;
55112;SDS011;41006;50.920;3.456;2023-02-28T01:09:17;12.52;;;9.57;;
55112;SDS011;41006;50.920;3.456;2023-02-28T01:09:52;10.77;;;8.75;;
55112;SDS011;41006;50.920;3.456;2023-02-28T01:10:22;14.20;;;9.02;;
55112;SDS011;41006;50.920;3.456;2023-02-28T01:10:55;11.15;;;9.23;;
55112;SDS011;41006;50.920;3.456;2023-02-28T01:11:30;14.90;;;9.38;;
55112;SDS011;41006;50.920;3.456;2023-02-28T01:12:02;10.88;;;8.80;;
55112;SDS011;41006;50.920;3.456;2023-02-28T01:12:33;13.57;;;9.75;;
55112;SDS011;41006;50.920;3.456;2023-02-28T01:13:05;14.38;;;8.85;;
55112;SDS011;41006;50.920;3.456;2023-02-28T01:13:36;11.57;;;9.10;;
55112;SDS011;41006;50.920;3.456;2023-02-28T01:14:08;16.33;;;8.82;;
55112;SDS011;41006;50.920;3.456;2023-02-28T01:14:38;13.50;;;9.88;;
55112;SDS011;41006;50.920;3.456;2023-02-28T01:15:11;11.68;;;8.60;;
55112;SDS011;41006;50.920;3.456;2023-02-28T01:15:46;12.93;;;9.15;;
55112;SDS011;41006;50.920;3.456;2023-02-28T01:16:18;13.90;;;9.75;;
55112;SDS011;41006;50.920;3.456;2023-02-28T01:16:49;9.82;;;8.80;;
55112;SDS011;41006;50.920;3.456;2023-02-28T01:17:21;10.27;;;9.32;;
55112;SDS011;41006;50.920;3.456;2023-02-28T01:17:54;12.18;;;9.48;;
55112;SDS011;41006;50.920;3.456;2023-02-28T01:18:24;14.25;;;9.82;;
55112;SDS011;41006;50.920;3.456;2023-02-28T01:18:55;10.73;;;9.65;;
55112;SDS011;41006;50.920;3.456;2023-02-28T01:19:27;12.05;;;10.55;;
55112;SDS011;41006;50.920;3.456;2023-02-28T01:19:58;11.07;;;9.93;;
55112;SDS011;41006;50.920;3.456;2023-02-28T01:20:28;12.15;;;9.70;;
55112;SDS011;41006;50.920;3.456;2023-02-28T01:21:02;11.50;;;10.30;;
55112;SDS011;41006;50.920;3.456;2023-02-28T01:21:35;11.82;;;9.98;;
55112;SDS011;41006;50.920;3.456;2023-02-28T01:22:07;10.82;;;9.45;;
55112;SDS011;41006;50.920;3.456;2023-02-28T01:22:38;14.77;;;11.18;;
55112;SDS011;41006;50.920;3.456;2023-02-28T01:23:08;13.80;;;10.75;;
55112;SDS011;41006;50.920;3.456;2023-02-28T01:23:39;11.40;;;10.20;;
55112;SDS011;41006;50.920;3.456;2023-02-28T01:24:11;13.48;;;10.05;;
55112;SDS011;41006;50.920;3.456;2023-02-28T01:24:41;11.57;;;10.32;;
55112;SDS011;41006;50.920;3.456;2023-02-28T01:25:12;13.95;;;10.30;;
55112;SDS011;41006;50.920;3.456;2023-02-28T01:25:47;11.18;;;10.10;;
55112;SDS011;41006;50.920;3.456;2023-02-28T01:26:21;13.02;;;10.75;;
55112;SDS011;41006;50.920;3.456;2023-02-28T01:26:53;11.25;;;9.60;;
55112;SDS011;41006;50.920;3.456;2023-02-28T01:27:24;11.57;;;9.88;;
55112;SDS011;41006;50.920;3.456;2023-02-28T01:27:54;13.30;;;10.45;;
55112;SDS011;41006;50.920;3.456;2023-02-28T01:28:26;12.82;;;10.68;;
55112;SDS011;41006;50.920;3.456;2023-02-28T01:28:57;16.60;;;10.57;;
55112;SDS011;41006;50.920;3.456;2023-02-28T01:29:27;11.48;;;10.27;;
55112;SDS011;41006;50.920;3.456;2023-02-28T01:29:57;11.40;;;10.18;;
55112;SDS011;41006;50.920;3.456;2023-02-28T01:30:28;12.32;;;10.27;;
55112;SDS011;41006;50.920;3.456;2023-02-28T01:31:01;13.32;;;10.40;;
55112;SDS011;41006;50.920;3.456;2023-02-28T01:31:31;11.20;;;9.82;;
55112;SDS011;41006;50.920;3.456;2023-02-28T01:32:01;12.23;;;10.50;;
55112;SDS011;41006;50.920;3.456;2023-02-28T01:32:32;15.70;;;10.40;;
55112;SDS011;41006;50.920;3.456;2023-02-28T01:33:05;12.90;;;10.98;;
55112;SDS011;41006;50.920;3.456;2023-02-28T01:33:35;11.02;;;10.05;;
55112;SDS011;41006;50.920;3.456;2023-02-28T01:34:06;12.68;;;10.73;;
55112;SDS011;41006;50.920;3.456;2023-02-28T01:34:36;14.57;;;10.38;;
55112;SDS011;41006;50.920;3.456;2023-02-28T01:35:06;12.70;;;10.48;;
55112;SDS011;41006;50.920;3.456;2023-02-28T01:35:37;11.65;;;10.55;;
55112;SDS011;41006;50.920;3.456;2023-02-28T01:36:09;11.23;;;10.07;;
55112;SDS011;41006;50.920;3.456;2023-02-28T01:36:40;14.55;;;10.65;;
55112;SDS011;41006;50.920;3.456;2023-02-28T01:37:13;11.98;;;9.82;;
55112;SDS011;41006;50.920;3.456;2023-02-28T01:37:48;12.98;;;10.85;;
55112;SDS011;41006;50.920;3.456;2023-02-28T01:38:21;13.43;;;10.52;;
55112;SDS011;41006;50.920;3.456;2023-02-28T01:38:53;13.70;;;10.35;;
55112;SDS011;41006;50.920;3.456;2023-02-28T01:39:26;13.65;;;10.88;;
55112;SDS011;41006;50.920;3.456;2023-02-28T01:39:59;11.48;;;10.27;;
55112;SDS011;41006;50.920;3.456;2023-02-28T01:40:31;13.30;;;10.63;;
55112;SDS011;41006;50.920;3.456;2023-02-28T01:41:07;12.68;;;10.88;;
55112;SDS011;41006;50.920;3.456;2023-02-28T01:41:37;12.48;;;11.13;;
55112;SDS011;41006;50.920;3.456;2023-02-28T01:42:08;13.90;;;11.48;;
55112;SDS011;41006;50.920;3.456;2023-02-28T01:42:41;12.65;;;11.45;;
55112;SDS011;41006;50.920;3.456;2023-02-28T01:43:16;11.48;;;10.27;;
55112;SDS011;41006;50.920;3.456;2023-02-28T01:45:22;12.35;;;11.05;;
55112;SDS011;41006;50.920;3.456;2023-02-28T01:45:53;11.93;;;10.88;;
55112;SDS011;41006;50.920;3.456;2023-02-28T01:46:26;13.73;;;10.50;;
55112;SDS011;41006;50.920;3.456;2023-02-28T01:46:56;13.13;;;11.45;;
55112;SDS011;41006;50.920;3.456;2023-02-28T01:47:31;14.52;;;10.57;;
55112;SDS011;41006;50.920;3.456;2023-02-28T01:48:03;16.50;;;11.73;;
55112;SDS011;41006;50.920;3.456;2023-02-28T01:48:35;12.98;;;11.25;;
55112;SDS011;41006;50.920;3.456;2023-02-28T01:49:11;14.15;;;11.45;;
55112;SDS011;41006;50.920;3.456;2023-02-28T01:49:43;13.15;;;11.45;;
55112;SDS011;41006;50.920;3.456;2023-02-28T01:50:16;15.63;;;11.60;;
55112;SDS011;41006;50.920;3.456;2023-02-28T01:50:48;13.18;;;11.38;;
55112;SDS011;41006;50.920;3.456;2023-02-28T01:51:22;14.98;;;11.95;;
55112;SDS011;41006;50.920;3.456;2023-02-28T01:51:59;15.02;;;11.77;;
55112;SDS011;41006;50.920;3.456;2023-02-28T01:52:29;12.43;;;11.23;;
55112;SDS011;41006;50.920;3.456;2023-02-28T01:53:00;15.43;;;12.48;;
55112;SDS011;41006;50.920;3.456;2023-02-28T01:53:37;13.82;;;12.35;;
55112;SDS011;41006;50.920;3.456;2023-02-28T01:54:12;15.13;;;12.65;;
55112;SDS011;41006;50.920;3.456;2023-02-28T01:54:51;16.33;;;12.35;;
55112;SDS011;41006;50.920;3.456;2023-02-28T01:55:21;14.45;;;12.43;;
55112;SDS011;41006;50.920;3.456;2023-02-28T01:55:52;14.60;;;12.30;;
55112;SDS011;41006;50.920;3.456;2023-02-28T01:56:25;18.40;;;12.90;;
55112;SDS011;41006;50.920;3.456;2023-02-28T01:57:10;14.43;;;12.93;;
55112;SDS011;41006;50.920;3.456;2023-02-28T01:57:45;15.95;;;13.25;;
55112;SDS011;41006;50.920;3.456;2023-02-28T01:58:16;14.65;;;11.95;;
55112;SDS011;41006;50.920;3.456;2023-02-28T01:58:47;14.23;;;12.85;;
55112;SDS011;41006;50.920;3.456;2023-02-28T01:59:22;14.93;;;12.73;;
55112;SDS011;41006;50.920;3.456;2023-02-28T02:00:01;13.63;;;12.30;;
55112;SDS011;41006;50.920;3.456;2023-02-28T02:00:34;18.70;;;13.73;;
55112;SDS011;41006;50.920;3.456;2023-02-28T02:01:07;14.68;;;13.07;;
55112;SDS011;41006;50.920;3.456;2023-02-28T02:01:37;16.55;;;12.57;;
55112;SDS011;41006;50.920;3.456;2023-02-28T02:02:07;14.00;;;12.52;;
55112;SDS011;41006;50.920;3.456;2023-02-28T02:02:41;14.63;;;13.23;;
55112;SDS011;41006;50.920;3.456;2023-02-28T02:03:13;15.27;;;13.00;;
55112;SDS011;41006;50.920;3.456;2023-02-28T02:03:44;15.95;;;13.07;;
55112;SDS011;41006;50.920;3.456;2023-02-28T02:04:15;15.15;;;13.65;;
55112;SDS011;41006;50.920;3.456;2023-02-28T02:04:54;14.02;;;12.63;;
55112;SDS011;41006;50.920;3.456;2023-02-28T02:05:26;14.20;;;12.70;;
55112;SDS011;41006;50.920;3.456;2023-02-28T02:06:03;15.18;;;13.25;;
55112;SDS011;41006;50.920;3.456;2023-02-28T02:06:42;13.90;;;12.63;;
55112;SDS011;41006;50.920;3.456;2023-02-28T02:07:18;15.32;;;13.80;;
55112;SDS011;41006;50.920;3.456;2023-02-28T02:07:52;13.88;;;12.35;;
55112;SDS011;41006;50.920;3.456;2023-02-28T02:08:26;15.35;;;13.70;;
55112;SDS011;41006;50.920;3.456;2023-02-28T02:08:57;14.07;;;12.43;;
55112;SDS011;41006;50.920;3.456;2023-02-28T02:09:28;14.55;;;13.13;;
55112;SDS011;41006;50.920;3.456;2023-02-28T02:10:36;14.20;;;12.80;;
55112;SDS011;41006;50.920;3.456;2023-02-28T02:11:09;14.57;;;13.20;;
55112;SDS011;41006;50.920;3.456;2023-02-28T02:11:42;16.75;;;13.65;;
55112;SDS011;41006;50.920;3.456;2023-02-28T02:12:18;13.85;;;12.55;;
55112;SDS011;41006;50.920;3.456;2023-02-28T02:18:13;14.10;;;12.65;;
55112;SDS011;41006;50.920;3.456;2023-02-28T02:18:18;16.63;;;14.48;;
55112;SDS011;41006;50.920;3.456;2023-02-28T02:18:57;17.02;;;14.50;;
55112;SDS011;41006;50.920;3.456;2023-02-28T02:19:36;14.73;;;13.40;;
55112;SDS011;41006;50.920;3.456;2023-02-28T02:20:25;15.90;;;14.20;;
55112;SDS011;41006;50.920;3.456;2023-02-28T02:24:48;14.45;;;13.05;;
55112;SDS011;41006;50.920;3.456;2023-02-28T02:25:26;17.25;;;13.50;;
55112;SDS011;41006;50.920;3.456;2023-02-28T02:26:44;15.07;;;13.48;;
55112;SDS011;41006;50.920;3.456;2023-02-28T02:27:34;14.93;;;13.43;;
55112;SDS011;41006;50.920;3.456;2023-02-28T02:31:56;17.00;;;14.65;;
55112;SDS011;41006;50.920;3.456;2023-02-28T02:35:56;16.30;;;14.70;;
55112;SDS011;41006;50.920;3.456;2023-02-28T02:36:37;17.58;;;15.20;;
55112;SDS011;41006;50.920;3.456;2023-02-28T02:37:19;16.90;;;15.60;;
55112;SDS011;41006;50.920;3.456;2023-02-28T02:37:51;17.85;;;16.15;;
55112;SDS011;41006;50.920;3.456;2023-02-28T02:39:02;17.48;;;15.95;;
55112;SDS011;41006;50.920;3.456;2023-02-28T02:40:19;18.52;;;16.88;;
55112;SDS011;41006;50.920;3.456;2023-02-28T02:41:03;17.38;;;15.77;;
55112;SDS011;41006;50.920;3.456;2023-02-28T02:41:53;15.95;;;14.45;;
55112;SDS011;41006;50.920;3.456;2023-02-28T02:42:28;14.80;;;13.50;;
55112;SDS011;41006;50.920;3.456;2023-02-28T02:43:03;18.40;;;16.75;;
55112;SDS011;41006;50.920;3.456;2023-02-28T02:43:40;19.77;;;17.90;;
55112;SDS011;41006;50.920;3.456;2023-02-28T02:44:52;18.70;;;16.90;;
55112;SDS011;41006;50.920;3.456;2023-02-28T02:46:20;25.63;;;13.50;;
55112;SDS011;41006;50.920;3.456;2023-02-28T02:46:51;18.65;;;16.85;;
55112;SDS011;41006;50.920;3.456;2023-02-28T02:47:24;18.42;;;16.65;;
55112;SDS011;41006;50.920;3.456;2023-02-28T02:47:58;18.83;;;16.98;;
55112;SDS011;41006;50.920;3.456;2023-02-28T02:48:30;18.73;;;16.75;;
55112;SDS011;41006;50.920;3.456;2023-02-28T02:49:03;19.50;;;17.73;;
55112;SDS011;41006;50.920;3.456;2023-02-28T02:49:35;18.90;;;17.35;;
55112;SDS011;41006;50.920;3.456;2023-02-28T02:50:10;18.30;;;16.70;;
55112;SDS011;41006;50.920;3.456;2023-02-28T02:50:46;19.08;;;17.38;;
55112;SDS011;41006;50.920;3.456;2023-02-28T02:51:21;20.15;;;18.27;;
55112;SDS011;41006;50.920;3.456;2023-02-28T02:51:57;19.45;;;17.60;;
55112;SDS011;41006;50.920;3.456;2023-02-28T02:52:32;18.70;;;17.05;;
55112;SDS011;41006;50.920;3.456;2023-02-28T02:53:07;18.92;;;17.23;;
55112;SDS011;41006;50.920;3.456;2023-02-28T02:53:40;18.60;;;16.85;;
55112;SDS011;41006;50.920;3.456;2023-02-28T02:54:15;17.95;;;16.33;;
55112;SDS011;41006;50.920;3.456;2023-02-28T02:54:49;18.77;;;16.95;;
55112;SDS011;41006;50.920;3.456;2023-02-28T02:55:20;19.23;;;17.52;;
55112;SDS011;41006;50.920;3.456;2023-02-28T02:55:52;19.52;;;17.45;;
55112;SDS011;41006;50.920;3.456;2023-02-28T02:56:25;19.20;;;17.60;;
55112;SDS011;41006;50.920;3.456;2023-02-28T02:57:02;19.52;;;17.73;;
55112;SDS011;41006;50.920;3.456;2023-02-28T02:58:16;20.67;;;18.88;;
55112;SDS011;41006;50.920;3.456;2023-02-28T02:58:31;14.15;;;12.75;;
55112;SDS011;41006;50.920;3.456;2023-02-28T02:59:04;20.17;;;18.25;;
55112;SDS011;41006;50.920;3.456;2023-02-28T02:59:36;18.55;;;17.05;;
55112;SDS011;41006;50.920;3.456;2023-02-28T03:00:08;18.60;;;17.10;;
55112;SDS011;41006;50.920;3.456;2023-02-28T03:00:42;19.15;;;17.50;;
55112;SDS011;41006;50.920;3.456;2023-02-28T03:01:20;19.60;;;17.70;;
55112;SDS011;41006;50.920;3.456;2023-02-28T03:02:00;18.83;;;17.00;;
55112;SDS011;41006;50.920;3.456;2023-02-28T03:02:31;18.83;;;17.02;;
55112;SDS011;41006;50.920;3.456;2023-02-28T03:03:05;19.35;;;17.77;;
55112;SDS011;41006;50.920;3.456;2023-02-28T03:03:39;19.80;;;17.98;;
55112;SDS011;41006;50.920;3.456;2023-02-28T03:04:13;20.13;;;18.48;;
55112;SDS011;41006;50.920;3.456;2023-02-28T03:04:56;20.35;;;18.63;;
55112;SDS011;41006;50.920;3.456;2023-02-28T03:05:33;16.73;;;15.18;;
55112;SDS011;41006;50.920;3.456;2023-02-28T03:06:07;21.42;;;19.63;;
55112;SDS011;41006;50.920;3.456;2023-02-28T03:06:38;20.35;;;18.40;;
55112;SDS011;41006;50.920;3.456;2023-02-28T03:07:11;20.33;;;18.55;;
55112;SDS011;41006;50.920;3.456;2023-02-28T03:07:41;20.80;;;18.98;;
55112;SDS011;41006;50.920;3.456;2023-02-28T03:08:12;22.25;;;19.88;;
55112;SDS011;41006;50.920;3.456;2023-02-28T03:08:42;21.25;;;19.27;;
55112;SDS011;41006;50.920;3.456;2023-02-28T03:09:14;20.42;;;18.77;;
55112;SDS011;41006;50.920;3.456;2023-02-28T03:09:50;20.15;;;18.52;;
55112;SDS011;41006;50.920;3.456;2023-02-28T03:10:32;19.23;;;17.63;;
55112;SDS011;41006;50.920;3.456;2023-02-28T03:11:05;18.48;;;16.75;;
55112;SDS011;41006;50.920;3.456;2023-02-28T03:11:36;20.40;;;18.65;;
55112;SDS011;41006;50.920;3.456;2023-02-28T03:12:09;20.27;;;18.58;;
55112;SDS011;41006;50.920;3.456;2023-02-28T03:12:47;21.35;;;19.40;;
55112;SDS011;41006;50.920;3.456;2023-02-28T03:15:04;20.85;;;19.08;;
55112;SDS011;41006;50.920;3.456;2023-02-28T03:15:28;15.85;;;14.57;;
55112;SDS011;41006;50.920;3.456;2023-02-28T03:19:48;19.73;;;17.98;;
55112;SDS011;41006;50.920;3.456;2023-02-28T03:21:26;19.02;;;17.35;;
55112;SDS011;41006;50.920;3.456;2023-02-28T03:23:39;20.30;;;18.42;;
55112;SDS011;41006;50.920;3.456;2023-02-28T03:24:31;20.48;;;18.48;;
55112;SDS011;41006;50.920;3.456;2023-02-28T03:26:22;20.65;;;18.95;;
55112;SDS011;41006;50.920;3.456;2023-02-28T03:27:27;16.63;;;15.03;;
55112;SDS011;41006;50.920;3.456;2023-02-28T03:28:07;19.05;;;17.08;;
55112;SDS011;41006;50.920;3.456;2023-02-28T03:29:27;21.70;;;19.92;;
55112;SDS011;41006;50.920;3.456;2023-02-28T03:31:33;18.83;;;16.90;;
55112;SDS011;41006;50.920;3.456;2023-02-28T03:31:43;21.58;;;19.55;;
55112;SDS011;41006;50.920;3.456;2023-02-28T03:33:28;22.98;;;20.98;;
55112;SDS011;41006;50.920;3.456;2023-02-28T03:34:07;22.27;;;20.38;;
55112;SDS011;41006;50.920;3.456;2023-02-28T03:34:39;18.13;;;16.40;;
55112;SDS011;41006;50.920;3.456;2023-02-28T03:35:14;21.02;;;19.35;;
55112;SDS011;41006;50.920;3.456;2023-02-28T03:35:52;22.35;;;20.45;;
55112;SDS011;41006;50.920;3.456;2023-02-28T03:36:25;21.50;;;19.63;;
55112;SDS011;41006;50.920;3.456;2023-02-28T03:37:02;22.85;;;20.80;;
55112;SDS011;41006;50.920;3.456;2023-02-28T03:37:35;21.75;;;20.00;;
55112;SDS011;41006;50.920;3.456;2023-02-28T03:38:15;22.00;;;20.20;;
55112;SDS011;41006;50.920;3.456;2023-02-28T03:38:58;19.05;;;16.80;;
55112;SDS011;41006;50.920;3.456;2023-02-28T03:39:49;22.88;;;20.83;;
55112;SDS011;41006;50.920;3.456;2023-02-28T03:40:23;20.52;;;17.52;;
55112;SDS011;41006;50.920;3.456;2023-02-28T03:41:01;24.00;;;21.70;;
55112;SDS011;41006;50.920;3.456;2023-02-28T03:41:36;23.38;;;21.48;;
55112;SDS011;41006;50.920;3.456;2023-02-28T03:42:16;24.13;;;21.83;;
55112;SDS011;41006;50.920;3.456;2023-02-28T03:42:52;17.83;;;15.98;;
55112;SDS011;41006;50.920;3.456;2023-02-28T03:43:26;23.08;;;21.23;;
55112;SDS011;41006;50.920;3.456;2023-02-28T03:44:01;24.27;;;21.90;;
55112;SDS011;41006;50.920;3.456;2023-02-28T03:44:48;22.67;;;20.67;;
55112;SDS011;41006;50.920;3.456;2023-02-28T03:45:21;23.00;;;20.80;;
55112;SDS011;41006;50.920;3.456;2023-02-28T03:45:52;22.30;;;20.55;;
55112;SDS011;41006;50.920;3.456;2023-02-28T03:46:24;24.25;;;22.13;;
55112;SDS011;41006;50.920;3.456;2023-02-28T03:47:10;23.65;;;21.52;;
55112;SDS011;41006;50.920;3.456;2023-02-28T03:47:42;19.73;;;18.10;;
55112;SDS011;41006;50.920;3.456;2023-02-28T03:48:46;22.83;;;20.75;;
55112;SDS011;41006;50.920;3.456;2023-02-28T03:49:22;24.48;;;22.27;;
55112;SDS011;41006;50.920;3.456;2023-02-28T03:49:54;23.83;;;21.80;;
55112;SDS011;41006;50.920;3.456;2023-02-28T03:50:37;24.38;;;22.42;;